Time;durP1;ratioP1;P1;durP2;ratioP2;P2;SDS_P1;SDS_P2;PMS_P1;PMS_P2;Temp;Humidity;BMP_temperature;BMP_pressure;BME280_temperature;BME280_humidity;BME280_pressure;Samples;Min_cycle;Max_cycle;Signal;HPM_P1;HPM_P2
2023/06/13 00:00:28;;;;;;;;;9.00;8.00;26.20;50.60;;;;;;111219;1243;54740;-66
2023/06/13 00:03:15;;;;;;;;;10.67;9.00;26.20;50.60;;;;;;111354;1243;47161;-66
2023/06/13 00:05:46;;;;;;;;;10.75;9.75;26.20;50.60;;;;;;111129;1239;49779;-66
2023/06/13 00:08:17;;;;;;;;;8.33;7.33;26.20;50.60;;;;;;111245;1238;49425;-65
2023/06/13 00:10:46;;;;;;;;;11.33;8.67;26.20;50.50;;;;;;111377;1241;55071;-65
2023/06/13 00:13:17;;;;;;;;;9.00;8.00;26.20;51.00;;;;;;111275;1243;48057;-66
2023/06/13 00:15:50;;;;;;;;;11.25;9.00;26.20;50.50;;;;;;111028;1241;48628;-66
2023/06/13 00:18:19;;;;;;;;;9.00;8.00;26.20;50.50;;;;;;111405;1241;49964;-66
2023/06/13 00:20:47;;;;;;;;;10.00;8.67;26.20;50.50;;;;;;111550;1240;53697;-65
2023/06/13 00:23:15;;;;;;;;;8.75;7.75;26.20;50.50;;;;;;111359;1238;44567;-66
2023/06/13 00:25:42;;;;;;;;;8.00;7.00;26.20;50.60;;;;;;111278;1237;49032;-65
2023/06/13 00:28:10;;;;;;;;;11.33;10.00;26.20;50.70;;;;;;111333;1241;49236;-65
2023/06/13 00:30:36;;;;;;;;;11.25;10.00;26.20;50.40;;;;;;111283;1244;53931;-65
2023/06/13 00:33:04;;;;;;;;;9.00;8.00;26.20;50.50;;;;;;111408;1241;44813;-65
2023/06/13 00:35:32;;;;;;;;;10.67;8.00;26.20;50.50;;;;;;111099;1243;48369;-65
2023/06/13 00:38:01;;;;;;;;;9.67;8.67;26.10;50.40;;;;;;111361;1242;50315;-65
2023/06/13 00:40:28;;;;;;;;;10.75;9.75;26.20;50.40;;;;;;111217;1244;54722;-65
2023/06/13 00:42:56;;;;;;;;;10.75;8.50;26.10;50.60;;;;;;111354;1238;44548;-66
2023/06/13 00:45:25;;;;;;;;;8.00;7.00;26.10;50.40;;;;;;111342;1243;49813;-66
2023/06/13 00:47:55;;;;;;;;;9.75;8.75;26.10;50.40;;;;;;111198;1238;49440;-66
2023/06/13 00:50:28;;;;;;;;;8.67;7.67;26.10;50.30;;;;;;111248;1239;54654;-65
2023/06/13 00:52:56;;;;;;;;;9.00;8.00;26.10;50.30;;;;;;111399;1238;45856;-65
2023/06/13 00:55:25;;;;;;;;;9.00;8.25;26.10;50.30;;;;;;111196;1242;50110;-66
2023/06/13 00:57:56;;;;;;;;;9.75;8.75;26.10;50.30;;;;;;111305;1243;49557;-66
2023/06/13 01:00:26;;;;;;;;;9.00;8.00;26.10;50.30;;;;;;111267;1239;53435;-66
2023/06/13 01:02:59;;;;;;;;;9.00;8.00;26.10;50.30;;;;;;111209;1243;44749;-66
2023/06/13 01:05:31;;;;;;;;;10.25;9.00;26.10;50.30;;;;;;111114;1242;49322;-65
2023/06/13 01:07:59;;;;;;;;;9.00;8.00;26.10;50.30;;;;;;111386;1238;49433;-66
2023/06/13 01:10:27;;;;;;;;;10.75;9.75;26.10;50.20;;;;;;111355;1241;55107;-66
2023/06/13 01:13:29;;;;;;;;;8.00;7.00;26.10;50.30;;;;;;111481;1243;44651;-66
2023/06/13 01:16:10;;;;;;;;;9.00;8.00;26.10;50.20;;;;;;110812;1239;49245;-67
2023/06/13 01:18:42;;;;;;;;;9.67;8.67;26.10;50.20;;;;;;111329;1238;49661;-65
2023/06/13 01:21:11;;;;;;;;;8.67;7.67;26.10;50.10;;;;;;111386;1237;53534;-65
2023/06/13 01:24:03;;;;;;;;;10.33;8.00;26.10;50.10;;;;;;110347;1240;1208939;-65
2023/06/13 01:26:54;;;;;;;;;9.50;8.75;26.10;50.20;;;;;;111166;1244;49570;-66
2023/06/13 01:29:22;;;;;;;;;10.00;8.00;26.10;50.10;;;;;;111193;1244;48915;-66
2023/06/13 01:31:52;;;;;;;;;8.75;7.75;26.10;50.30;;;;;;111306;1240;53710;-65
2023/06/13 01:34:20;;;;;;;;;9.00;8.00;26.10;50.10;;;;;;111290;1244;44353;-66
2023/06/13 01:36:48;;;;;;;;;8.25;7.00;26.10;50.20;;;;;;111163;1238;48490;-66
2023/06/13 01:39:14;;;;;;;;;9.00;8.00;26.00;50.30;;;;;;111312;1244;49495;-67
2023/06/13 01:41:41;;;;;;;;;9.50;8.25;26.00;50.00;;;;;;111290;1240;53214;-67
2023/06/13 01:44:11;;;;;;;;;9.75;8.75;26.00;50.10;;;;;;111221;1239;44615;-66
2023/06/13 01:47:01;;;;;;;;;9.00;8.00;26.00;50.20;;;;;;111312;1239;49010;-66
2023/06/13 01:49:37;;;;;;;;;11.75;9.75;26.00;50.20;;;;;;111242;1244;48786;-67
2023/06/13 01:52:25;;;;;;;;;8.67;8.00;26.00;50.10;;;;;;111183;1238;53293;-67
2023/06/13 01:54:55;;;;;;;;;9.00;8.00;26.00;50.10;;;;;;111174;1244;44078;-64
2023/06/13 01:57:28;;;;;;;;;9.00;8.00;26.00;50.10;;;;;;111201;1243;49376;-66
2023/06/13 01:59:56;;;;;;;;;8.67;7.67;26.00;50.10;;;;;;111233;1244;48897;-66
2023/06/13 02:02:24;;;;;;;;;10.00;9.00;26.00;50.10;;;;;;111107;1244;53861;-65
2023/06/13 02:04:51;;;;;;;;;9.50;8.25;26.00;50.40;;;;;;111203;1238;44180;-66
2023/06/13 02:07:18;;;;;;;;;7.75;6.75;26.00;50.10;;;;;;111073;1242;49208;-66
2023/06/13 02:09:45;;;;;;;;;8.00;7.00;26.00;50.10;;;;;;111213;1240;48800;-65
2023/06/13 02:12:13;;;;;;;;;8.75;7.75;25.90;50.00;;;;;;111200;1240;54345;-66
2023/06/13 02:14:40;;;;;;;;;9.00;8.00;25.90;50.00;;;;;;111280;1238;44909;-66
2023/06/13 02:17:07;;;;;;;;;8.75;7.75;25.90;50.00;;;;;;111270;1244;48614;-67
2023/06/13 02:19:34;;;;;;;;;11.00;9.00;25.90;50.00;;;;;;111187;1238;49000;-67
2023/06/13 02:22:02;;;;;;;;;8.75;8.00;25.90;50.00;;;;;;111201;1244;53809;-66
2023/06/13 02:24:29;;;;;;;;;9.00;8.00;25.90;50.10;;;;;;111158;1240;44163;-65
2023/06/13 02:26:56;;;;;;;;;9.00;8.00;25.90;50.00;;;;;;111140;1241;50381;-67
2023/06/13 02:29:23;;;;;;;;;8.00;6.75;25.90;50.60;;;;;;111225;1240;48794;-65
2023/06/13 02:31:50;;;;;;;;;9.50;8.25;25.90;50.00;;;;;;111218;1246;53907;-66
2023/06/13 02:34:17;;;;;;;;;8.67;7.67;25.90;50.20;;;;;;111208;1243;44372;-66
2023/06/13 02:36:43;;;;;;;;;10.00;9.00;25.90;50.10;;;;;;111158;1244;49028;-66
2023/06/13 02:39:11;;;;;;;;;8.50;7.25;25.90;50.40;;;;;;111177;1240;49017;-66
2023/06/13 02:41:38;;;;;;;;;9.00;8.00;25.90;50.10;;;;;;111148;1241;54020;-65
2023/06/13 02:44:05;;;;;;;;;9.00;8.00;25.90;50.10;;;;;;111200;1244;44787;-65
2023/06/13 02:46:33;;;;;;;;;9.00;8.00;25.90;50.10;;;;;;111229;1238;49277;-65
2023/06/13 02:48:59;;;;;;;;;9.00;8.00;25.90;50.20;;;;;;111185;1244;49903;-65
2023/06/13 02:51:27;;;;;;;;;9.00;8.00;25.90;50.00;;;;;;111231;1240;54162;-66
2023/06/13 02:53:54;;;;;;;;;8.00;7.00;25.90;50.00;;;;;;111198;1243;44743;-66
2023/06/13 02:56:21;;;;;;;;;8.25;7.00;25.80;50.20;;;;;;111228;1243;49670;-66
2023/06/13 02:58:48;;;;;;;;;9.00;8.00;25.90;50.10;;;;;;111184;1238;49195;-66
2023/06/13 03:01:15;;;;;;;;;8.75;7.75;25.80;50.10;;;;;;111222;1241;53770;-65
2023/06/13 03:03:42;;;;;;;;;10.75;8.50;25.80;50.20;;;;;;111189;1240;44829;-64
2023/06/13 03:06:11;;;;;;;;;8.75;7.75;25.80;50.00;;;;;;111195;1240;48924;-66
2023/06/13 03:08:38;;;;;;;;;9.00;8.00;25.80;50.00;;;;;;111172;1238;50335;-66
2023/06/13 03:11:05;;;;;;;;;9.00;8.00;25.80;49.90;;;;;;111183;1243;54180;-67
2023/06/13 03:13:32;;;;;;;;;9.00;8.00;25.80;50.00;;;;;;111215;1243;44919;-67
2023/06/13 03:16:01;;;;;;;;;10.00;7.25;25.80;50.00;;;;;;111271;1244;48872;-68
2023/06/13 03:18:28;;;;;;;;;9.67;8.67;25.80;50.50;;;;;;111111;1241;49937;-67
2023/06/13 03:20:55;;;;;;;;;9.67;8.67;25.80;49.90;;;;;;111224;1244;54459;-67
2023/06/13 03:23:22;;;;;;;;;9.00;8.00;25.80;49.90;;;;;;111410;1244;44090;-66
2023/06/13 03:25:49;;;;;;;;;9.00;8.00;25.80;49.90;;;;;;111397;1241;49106;-66
2023/06/13 03:28:16;;;;;;;;;9.00;8.00;25.80;50.00;;;;;;111449;1238;49855;-66
2023/06/13 03:30:43;;;;;;;;;9.75;8.75;25.80;49.90;;;;;;111472;1238;54380;-66
2023/06/13 03:33:10;;;;;;;;;8.75;7.50;25.80;49.90;;;;;;111493;1240;44367;-66
2023/06/13 03:35:38;;;;;;;;;9.75;8.75;25.80;49.90;;;;;;111281;1243;48801;-65
2023/06/13 03:38:05;;;;;;;;;9.25;8.00;25.80;50.10;;;;;;111205;1238;49168;-66
2023/06/13 03:40:32;;;;;;;;;9.00;8.00;25.80;49.90;;;;;;111219;1240;53834;-65
2023/06/13 03:42:59;;;;;;;;;8.75;7.75;25.80;49.90;;;;;;111429;1238;45133;-65
2023/06/13 03:45:26;;;;;;;;;9.25;8.00;25.80;49.80;;;;;;111352;1239;48415;-64
2023/06/13 03:47:53;;;;;;;;;10.00;7.50;25.80;49.90;;;;;;111256;1240;49008;-66
2023/06/13 03:50:21;;;;;;;;;9.25;8.00;25.80;49.90;;;;;;111333;1241;54253;-65
2023/06/13 03:52:47;;;;;;;;;9.75;7.00;25.80;49.80;;;;;;111224;1244;44392;-64
2023/06/13 03:55:14;;;;;;;;;8.75;7.75;25.70;49.70;;;;;;111520;1237;49466;-66
2023/06/13 03:57:41;;;;;;;;;8.75;7.75;25.70;49.80;;;;;;111527;1237;49235;-70
2023/06/13 04:00:10;;;;;;;;;9.75;8.75;25.70;49.70;;;;;;111496;1243;53977;-65
2023/06/13 04:02:37;;;;;;;;;9.00;8.00;25.70;50.00;;;;;;111320;1238;44520;-70
2023/06/13 04:05:06;;;;;;;;;8.00;7.00;25.70;49.70;;;;;;111221;1244;49290;-67
2023/06/13 04:07:37;;;;;;;;;9.25;8.00;25.70;49.80;;;;;;111443;1242;48889;-65
2023/06/13 04:10:05;;;;;;;;;9.00;8.00;25.70;50.00;;;;;;111534;1238;53590;-65
2023/06/13 04:12:31;;;;;;;;;10.75;7.75;25.70;49.80;;;;;;111468;1240;44575;-65
2023/06/13 04:14:58;;;;;;;;;9.00;8.00;25.70;50.00;;;;;;111403;1240;49614;-68
2023/06/13 04:17:25;;;;;;;;;9.50;8.50;25.70;50.10;;;;;;111390;1244;49691;-62
2023/06/13 04:19:52;;;;;;;;;9.25;8.25;25.70;50.30;;;;;;111317;1243;54498;-61
2023/06/13 04:22:19;;;;;;;;;9.00;8.00;25.70;50.30;;;;;;111481;1242;44215;-61
2023/06/13 04:24:47;;;;;;;;;12.00;9.33;25.70;50.50;;;;;;111296;1239;49130;-67
2023/06/13 04:27:19;;;;;;;;;10.00;9.00;25.70;50.00;;;;;;111231;1241;48592;-63
2023/06/13 04:29:47;;;;;;;;;10.67;10.00;25.70;50.60;;;;;;111488;1241;53344;-60
2023/06/13 04:32:17;;;;;;;;;9.00;8.00;25.70;50.50;;;;;;111249;1240;44653;-61
2023/06/13 04:34:44;;;;;;;;;10.00;9.00;25.70;50.90;;;;;;111247;1243;48790;-63
2023/06/13 04:37:13;;;;;;;;;12.75;10.75;25.70;51.10;;;;;;111418;1238;48738;-63
2023/06/13 04:39:40;;;;;;;;;11.67;10.33;25.70;51.00;;;;;;111518;1241;53988;-63
2023/06/13 04:42:07;;;;;;;;;9.75;8.75;25.80;51.30;;;;;;111453;1241;44785;-67
2023/06/13 04:44:35;;;;;;;;;9.25;8.50;25.70;51.30;;;;;;111419;1238;49136;-63
2023/06/13 04:47:03;;;;;;;;;12.00;10.67;25.70;51.40;;;;;;111249;1241;48582;-64
2023/06/13 04:49:30;;;;;;;;;9.00;8.00;25.70;51.30;;;;;;111323;1241;53847;-62
2023/06/13 04:51:58;;;;;;;;;11.75;9.00;25.80;51.60;;;;;;111250;1239;44893;-62
2023/06/13 04:54:25;;;;;;;;;11.33;10.33;25.80;51.40;;;;;;111377;1238;48780;-63
2023/06/13 04:56:52;;;;;;;;;10.00;8.67;25.80;51.60;;;;;;111442;1239;49083;-62
2023/06/13 04:59:19;;;;;;;;;10.67;9.00;25.80;51.50;;;;;;111221;1240;54128;-62
2023/06/13 05:01:47;;;;;;;;;9.67;9.00;25.80;51.60;;;;;;111399;1237;45816;-61
2023/06/13 05:04:14;;;;;;;;;15.50;11.00;25.80;51.70;;;;;;111215;1244;48540;-60
2023/06/13 05:06:42;;;;;;;;;15.75;14.00;25.80;52.30;;;;;;111340;1238;48985;-61
2023/06/13 05:09:09;;;;;;;;;15.25;14.00;25.80;52.00;;;;;;111236;1243;53834;-60
2023/06/13 05:11:36;;;;;;;;;15.00;13.67;25.80;52.10;;;;;;111402;1238;44259;-61
2023/06/13 05:14:03;;;;;;;;;15.50;13.00;25.80;51.30;;;;;;111233;1243;49908;-61
2023/06/13 05:16:30;;;;;;;;;14.00;12.00;25.80;51.50;;;;;;111279;1238;48881;-60
2023/06/13 05:18:57;;;;;;;;;13.00;12.00;25.70;51.50;;;;;;111308;1243;54396;-62
2023/06/13 05:21:24;;;;;;;;;15.33;13.33;25.70;51.40;;;;;;111345;1243;44741;-62
2023/06/13 05:23:52;;;;;;;;;13.25;11.75;25.70;51.40;;;;;;111459;1244;50458;-61
2023/06/13 05:26:20;;;;;;;;;17.00;14.75;25.70;51.40;;;;;;111304;1242;50358;-62
2023/06/13 05:28:47;;;;;;;;;16.50;12.00;25.70;51.40;;;;;;111248;1243;53198;-62
2023/06/13 05:31:14;;;;;;;;;14.25;13.00;25.70;51.30;;;;;;111267;1243;44159;-62
2023/06/13 05:33:41;;;;;;;;;12.00;11.00;25.70;51.50;;;;;;111424;1243;48692;-61
2023/06/13 05:36:08;;;;;;;;;15.75;13.50;25.60;51.30;;;;;;111480;1238;49833;-62
2023/06/13 05:38:36;;;;;;;;;12.00;11.00;25.60;51.20;;;;;;111442;1238;54391;-62
2023/06/13 05:41:03;;;;;;;;;16.25;10.00;25.70;51.30;;;;;;111265;1243;44755;-61
2023/06/13 05:43:30;;;;;;;;;13.50;12.25;25.70;51.10;;;;;;111440;1241;49766;-60
2023/06/13 05:45:57;;;;;;;;;14.00;13.00;25.60;50.50;;;;;;111317;1238;49583;-59
2023/06/13 05:48:24;;;;;;;;;15.75;14.75;25.60;50.30;;;;;;111236;1238;53976;-59
2023/06/13 05:50:51;;;;;;;;;15.00;12.33;25.60;50.30;;;;;;111465;1244;44442;-58
2023/06/13 05:53:18;;;;;;;;;14.00;13.00;25.50;50.20;;;;;;111381;1243;49928;-58
2023/06/13 05:55:45;;;;;;;;;15.00;12.00;25.40;50.20;;;;;;111250;1243;49627;-60
2023/06/13 05:58:12;;;;;;;;;12.00;11.00;25.20;50.50;;;;;;111458;1241;53696;-60
2023/06/13 06:00:40;;;;;;;;;13.00;12.00;25.20;51.30;;;;;;111206;1243;44369;-58
2023/06/13 06:03:07;;;;;;;;;13.00;11.00;25.10;51.30;;;;;;111223;1238;49210;-60
2023/06/13 06:05:34;;;;;;;;;15.00;14.33;25.10;51.90;;;;;;111263;1243;49116;-60
2023/06/13 06:08:01;;;;;;;;;12.75;11.75;25.00;51.90;;;;;;111288;1243;53716;-59
2023/06/13 06:10:28;;;;;;;;;18.33;14.00;25.00;51.90;;;;;;111267;1243;45265;-60
2023/06/13 06:12:55;;;;;;;;;11.75;10.75;25.00;52.20;;;;;;111353;1240;49123;-58
2023/06/13 06:15:22;;;;;;;;;14.00;12.00;25.00;52.40;;;;;;111372;1244;49962;-59
2023/06/13 06:17:50;;;;;;;;;15.25;14.25;25.00;52.40;;;;;;111409;1242;53418;-62
2023/06/13 06:20:18;;;;;;;;;13.00;10.00;25.00;53.00;;;;;;111311;1243;45909;-61
2023/06/13 06:22:44;;;;;;;;;16.00;12.75;25.00;52.40;;;;;;111276;1243;50547;-62
2023/06/13 06:25:19;;;;;;;;;14.00;13.00;25.10;52.50;;;;;;111302;1238;49219;-60
2023/06/13 06:27:47;;;;;;;;;13.25;11.25;25.10;52.60;;;;;;111306;1238;54691;-61
2023/06/13 06:30:14;;;;;;;;;13.00;12.00;25.10;52.50;;;;;;111479;1238;44667;-61
2023/06/13 06:32:42;;;;;;;;;46.00;28.75;25.10;52.80;;;;;;111449;1241;48754;-61
2023/06/13 06:35:14;;;;;;;;;92.00;66.00;25.10;52.80;;;;;;111253;1239;49628;-60
2023/06/13 06:37:42;;;;;;;;;88.00;60.50;25.10;53.00;;;;;;111287;1239;54110;-61
2023/06/13 06:40:10;;;;;;;;;71.75;55.25;25.10;53.20;;;;;;111509;1238;44823;-62
2023/06/13 06:42:37;;;;;;;;;76.00;53.75;25.10;53.00;;;;;;111412;1243;50382;-59
2023/06/13 06:45:05;;;;;;;;;58.00;44.00;25.10;53.10;;;;;;111296;1243;49115;-61
2023/06/13 06:47:32;;;;;;;;;57.00;43.25;25.00;53.10;;;;;;111336;1243;53408;-60
2023/06/13 06:49:59;;;;;;;;;58.75;41.00;25.10;53.20;;;;;;111248;1238;44889;-60
2023/06/13 06:52:27;;;;;;;;;48.25;36.25;25.10;53.30;;;;;;111403;1238;49664;-60
2023/06/13 06:54:55;;;;;;;;;47.50;35.50;25.10;53.20;;;;;;111442;1243;49294;-60
2023/06/13 06:57:22;;;;;;;;;46.67;33.00;25.10;53.20;;;;;;111251;1246;54105;-61
2023/06/13 06:59:49;;;;;;;;;40.00;32.00;25.10;53.20;;;;;;111346;1241;45174;-62
2023/06/13 07:02:16;;;;;;;;;41.75;32.00;25.20;53.20;;;;;;111299;1238;48779;-60
2023/06/13 07:04:43;;;;;;;;;36.50;28.75;25.20;53.40;;;;;;111425;1238;49811;-61
2023/06/13 07:07:11;;;;;;;;;43.25;31.00;25.20;53.50;;;;;;111347;1239;54265;-64
2023/06/13 07:09:38;;;;;;;;;29.00;22.75;25.20;53.30;;;;;;111314;1243;44480;-60
2023/06/13 07:12:05;;;;;;;;;33.75;24.00;25.20;53.30;;;;;;111467;1243;49379;-61
2023/06/13 07:14:32;;;;;;;;;29.75;22.50;25.20;53.50;;;;;;111267;1239;49431;-60
2023/06/13 07:16:59;;;;;;;;;25.33;21.00;25.20;53.30;;;;;;111391;1244;55119;-58
2023/06/13 07:24:09;;;;;;;;;22.00;19.00;25.50;54.60;;;;;;107793;1279;34900;-68
2023/06/13 07:26:37;;;;;;;;;18.00;16.25;25.50;53.20;;;;;;110100;1256;48421;-68
2023/06/13 07:29:04;;;;;;;;;13.00;12.00;25.50;53.20;;;;;;110211;1256;54779;-72
2023/06/13 07:31:31;;;;;;;;;15.33;15.00;25.50;53.10;;;;;;110228;1253;44853;-70
2023/06/13 07:33:58;;;;;;;;;21.75;17.00;25.50;53.20;;;;;;110242;1256;48838;-68
2023/06/13 07:36:27;;;;;;;;;15.00;13.50;25.50;53.50;;;;;;110129;1256;50111;-69
2023/06/13 07:38:54;;;;;;;;;17.00;14.00;25.50;53.30;;;;;;109750;1250;677703;-68
2023/06/13 07:41:21;;;;;;;;;17.50;16.75;25.50;53.20;;;;;;110356;1250;44139;-70
2023/06/13 07:43:49;;;;;;;;;19.00;15.67;25.50;53.20;;;;;;110340;1250;48950;-66
2023/06/13 07:46:16;;;;;;;;;17.00;14.00;25.50;53.20;;;;;;110274;1250;49778;-67
2023/06/13 07:48:43;;;;;;;;;16.75;12.25;25.50;53.20;;;;;;110152;1250;53692;-67
2023/06/13 07:51:12;;;;;;;;;18.00;16.00;25.50;53.30;;;;;;110324;1250;44673;-70
2023/06/13 07:53:40;;;;;;;;;15.75;13.75;25.50;53.50;;;;;;110343;1251;50017;-68
2023/06/13 07:56:07;;;;;;;;;17.00;14.00;25.50;53.20;;;;;;110353;1254;49930;-64
2023/06/13 07:58:35;;;;;;;;;20.50;16.25;25.50;53.10;;;;;;110382;1253;55063;-65
2023/06/13 08:01:03;;;;;;;;;16.25;14.50;25.50;53.20;;;;;;110143;1254;44558;-65
2023/06/13 08:03:30;;;;;;;;;22.00;18.25;25.50;53.20;;;;;;110280;1254;49263;-66
2023/06/13 08:05:57;;;;;;;;;35.75;30.25;25.50;53.40;;;;;;110390;1250;49860;-67
2023/06/13 08:08:24;;;;;;;;;43.00;33.00;25.50;53.40;;;;;;110213;1250;53278;-65
2023/06/13 08:10:51;;;;;;;;;36.67;29.00;25.50;53.40;;;;;;110307;1254;44477;-65
2023/06/13 08:13:19;;;;;;;;;41.50;32.00;25.50;53.40;;;;;;110279;1250;49875;-69
2023/06/13 08:15:46;;;;;;;;;49.50;37.75;25.60;53.80;;;;;;110227;1250;48978;-70
2023/06/13 08:18:13;;;;;;;;;62.00;47.33;25.60;53.70;;;;;;110417;1250;53665;-68
2023/06/13 08:20:40;;;;;;;;;79.50;62.50;25.60;53.60;;;;;;110461;1250;45129;-71
2023/06/13 08:23:07;;;;;;;;;62.50;48.25;25.60;53.60;;;;;;110462;1250;49591;-70
2023/06/13 08:25:34;;;;;;;;;60.25;44.75;25.60;53.80;;;;;;110415;1250;49597;-66
2023/06/13 08:28:01;;;;;;;;;52.50;40.75;25.60;54.10;;;;;;110329;1257;53784;-66
2023/06/13 08:30:29;;;;;;;;;52.75;40.00;25.70;53.70;;;;;;110337;1250;44334;-67
2023/06/13 08:32:55;;;;;;;;;44.75;36.00;25.70;53.60;;;;;;110349;1250;49945;-66
2023/06/13 08:35:22;;;;;;;;;43.75;34.00;25.60;53.50;;;;;;110254;1251;49895;-64
2023/06/13 08:37:49;;;;;;;;;41.00;32.67;25.70;53.50;;;;;;111193;1243;53742;-70
2023/06/13 08:40:19;;;;;;;;;35.00;31.00;25.70;53.50;;;;;;111130;1243;44800;-66
2023/06/13 08:42:46;;;;;;;;;31.33;28.00;25.70;53.50;;;;;;110968;1245;50487;-66
2023/06/13 08:45:14;;;;;;;;;33.33;26.67;25.70;53.50;;;;;;110928;1244;49453;-65
2023/06/13 08:47:46;;;;;;;;;34.00;28.75;25.70;53.60;;;;;;111059;1247;53331;-65
2023/06/13 08:50:18;;;;;;;;;39.25;29.75;25.70;53.40;;;;;;110984;1247;44436;-65
2023/06/13 08:52:47;;;;;;;;;40.00;31.67;25.70;53.60;;;;;;111012;1247;48979;-65
2023/06/13 08:55:15;;;;;;;;;41.50;34.00;25.70;53.50;;;;;;111077;1243;48897;-63
2023/06/13 08:57:45;;;;;;;;;39.67;31.00;25.70;53.60;;;;;;111007;1247;53693;-65
2023/06/13 09:00:15;;;;;;;;;41.75;32.50;25.70;53.30;;;;;;110942;1243;44992;-64
2023/06/13 09:02:45;;;;;;;;;44.50;34.00;25.80;53.50;;;;;;110942;1244;49094;-66
2023/06/13 09:05:15;;;;;;;;;40.00;32.00;25.80;53.30;;;;;;110941;1243;49552;-64
2023/06/13 09:07:43;;;;;;;;;39.50;30.75;25.80;53.40;;;;;;110902;1244;53695;-65
2023/06/13 09:10:11;;;;;;;;;36.00;30.00;25.80;53.40;;;;;;110919;1248;44265;-67
2023/06/13 09:12:43;;;;;;;;;33.50;28.75;25.80;53.40;;;;;;110968;1243;49012;-68
2023/06/13 09:15:11;;;;;;;;;30.25;27.75;25.80;53.20;;;;;;111028;1247;49553;-66
2023/06/13 09:17:38;;;;;;;;;27.00;24.25;25.70;53.80;;;;;;110929;1243;54139;-66
2023/06/13 09:20:07;;;;;;;;;31.00;26.00;25.80;53.70;;;;;;110982;1247;45143;-68
2023/06/13 09:22:37;;;;;;;;;28.25;24.25;25.80;53.30;;;;;;110968;1243;49913;-70
2023/06/13 09:25:04;;;;;;;;;29.25;24.75;25.80;53.20;;;;;;110866;1243;50604;-68
2023/06/13 09:27:32;;;;;;;;;31.00;26.50;25.80;53.20;;;;;;110860;1247;53861;-67
2023/06/13 09:30:03;;;;;;;;;33.25;26.50;25.80;53.40;;;;;;110921;1243;44667;-67
2023/06/13 09:32:30;;;;;;;;;25.00;23.00;25.80;53.30;;;;;;110912;1247;49185;-68
2023/06/13 09:34:57;;;;;;;;;28.00;24.50;25.80;53.20;;;;;;111007;1247;49875;-68
2023/06/13 09:37:25;;;;;;;;;24.75;21.25;25.80;53.50;;;;;;110987;1244;54114;-68
2023/06/13 09:39:55;;;;;;;;;25.50;22.50;25.90;53.40;;;;;;110932;1243;44338;-67
2023/06/13 09:42:23;;;;;;;;;26.25;23.00;25.90;53.30;;;;;;110917;1246;49166;-69
2023/06/13 09:44:50;;;;;;;;;25.00;23.00;25.90;53.30;;;;;;110941;1247;49661;-68
2023/06/13 09:47:22;;;;;;;;;25.50;22.00;25.90;53.30;;;;;;110867;1243;53392;-68
2023/06/13 09:49:56;;;;;;;;;22.75;20.50;25.90;53.30;;;;;;110853;1245;44094;-68
2023/06/13 09:52:24;;;;;;;;;23.00;19.25;25.90;53.20;;;;;;110890;1247;48974;-68
2023/06/13 09:54:52;;;;;;;;;27.33;21.33;25.90;53.10;;;;;;110986;1243;49432;-68
2023/06/13 09:57:21;;;;;;;;;28.75;23.75;25.90;53.10;;;;;;110985;1243;54247;-67
2023/06/13 09:59:50;;;;;;;;;19.00;18.33;25.90;53.10;;;;;;110937;1243;45856;-69
2023/06/13 10:02:22;;;;;;;;;22.25;20.00;25.90;53.20;;;;;;110949;1247;49458;-68
2023/06/13 10:04:54;;;;;;;;;22.33;18.00;25.90;53.20;;;;;;110930;1247;49343;-68
2023/06/13 10:07:22;;;;;;;;;22.00;18.00;25.90;53.40;;;;;;111004;1247;53267;-66
2023/06/13 10:09:48;;;;;;;;;21.25;17.50;25.90;53.40;;;;;;110932;1243;45054;-67
2023/06/13 10:12:21;;;;;;;;;20.00;17.25;25.90;53.50;;;;;;110850;1243;48952;-68
2023/06/13 10:14:55;;;;;;;;;19.00;16.00;25.90;53.60;;;;;;110942;1247;49138;-65
2023/06/13 10:17:22;;;;;;;;;21.25;18.25;25.90;53.80;;;;;;110956;1243;53752;-70
2023/06/13 10:20:01;;;;;;;;;22.75;18.75;25.90;53.80;;;;;;110949;1243;44485;-67
2023/06/13 10:22:28;;;;;;;;;21.00;17.00;25.90;53.50;;;;;;110929;1244;50034;-65
2023/06/13 10:24:56;;;;;;;;;19.67;16.33;25.90;53.60;;;;;;110926;1247;48900;-64
2023/06/13 10:27:25;;;;;;;;;21.00;19.00;25.90;53.10;;;;;;110895;1244;54792;-67
2023/06/13 10:30:20;;;;;;;;;20.00;16.50;25.90;53.40;;;;;;110931;1247;44351;-69
2023/06/13 10:33:18;;;;;;;;;17.00;16.25;25.90;53.40;;;;;;110984;1247;49872;-65
2023/06/13 10:36:07;;;;;;;;;20.00;16.00;25.90;53.50;;;;;;111027;1247;49008;-69
2023/06/13 10:38:45;;;;;;;;;22.00;16.25;25.90;53.50;;;;;;111004;1243;54596;-69
2023/06/13 10:41:53;;;;;;;;;21.00;17.00;25.90;53.40;;;;;;110922;1243;44216;-65
2023/06/13 10:44:29;;;;;;;;;17.50;15.50;25.90;53.60;;;;;;110285;1253;50303;-67
2023/06/13 10:46:57;;;;;;;;;19.00;17.50;25.90;53.40;;;;;;110844;1245;49059;-68
2023/06/13 10:49:35;;;;;;;;;20.33;17.00;25.90;53.30;;;;;;110912;1247;54115;-65
2023/06/13 10:52:03;;;;;;;;;18.00;16.00;25.90;53.20;;;;;;110904;1247;45728;-71
2023/06/13 10:54:30;;;;;;;;;19.67;16.33;25.90;53.20;;;;;;110940;1243;48931;-67
2023/06/13 10:57:00;;;;;;;;;20.00;16.75;25.90;53.20;;;;;;110835;1247;49333;-67
2023/06/13 10:59:36;;;;;;;;;22.25;18.00;25.90;53.40;;;;;;110987;1247;54836;-67
2023/06/13 11:02:16;;;;;;;;;21.00;18.00;25.90;53.20;;;;;;110971;1243;44729;-66
2023/06/13 11:04:53;;;;;;;;;19.00;17.00;25.90;53.20;;;;;;111013;1244;48839;-64
2023/06/13 11:07:20;;;;;;;;;17.00;14.25;25.90;53.30;;;;;;111019;1244;50430;-65
2023/06/13 11:10:14;;;;;;;;;22.75;18.00;25.90;53.50;;;;;;110995;1248;53467;-67
2023/06/13 11:12:42;;;;;;;;;19.75;16.00;26.00;53.40;;;;;;110971;1243;44518;-67
2023/06/13 11:15:23;;;;;;;;;19.67;18.67;26.00;53.40;;;;;;110968;1244;50233;-67
2023/06/13 11:18:08;;;;;;;;;14.75;14.00;26.00;53.50;;;;;;110923;1243;49401;-67
2023/06/13 11:20:58;;;;;;;;;16.75;14.00;26.00;53.50;;;;;;110944;1247;53741;-68
2023/06/13 11:23:35;;;;;;;;;17.50;15.50;25.90;53.50;;;;;;110952;1244;45626;-65
2023/06/13 11:26:03;;;;;;;;;18.50;14.25;25.90;53.30;;;;;;110969;1244;49407;-69
2023/06/13 11:28:31;;;;;;;;;18.33;15.33;25.90;53.50;;;;;;110953;1247;48927;-69
2023/06/13 11:31:04;;;;;;;;;14.00;13.00;25.90;53.40;;;;;;111130;1243;53953;-69
2023/06/13 11:33:36;;;;;;;;;21.00;17.00;25.90;53.20;;;;;;111139;1247;44961;-69
2023/06/13 11:36:03;;;;;;;;;19.25;13.25;25.90;53.40;;;;;;111059;1243;49444;-66
2023/06/13 11:38:37;;;;;;;;;16.00;13.00;25.90;53.20;;;;;;111246;1245;49444;-68
2023/06/13 11:41:05;;;;;;;;;19.00;16.25;26.00;53.20;;;;;;111062;1244;53254;-66
2023/06/13 11:43:34;;;;;;;;;16.00;12.00;26.00;53.20;;;;;;111096;1242;44450;-68
2023/06/13 11:46:03;;;;;;;;;16.25;15.00;26.00;53.50;;;;;;111078;1250;49133;-66
2023/06/13 11:48:31;;;;;;;;;16.33;14.00;26.00;53.30;;;;;;111067;1243;49322;-70
2023/06/13 11:51:09;;;;;;;;;15.00;13.00;26.00;53.10;;;;;;111075;1243;53566;-71
2023/06/13 11:53:56;;;;;;;;;15.50;13.25;26.00;53.20;;;;;;110993;1248;45487;-66
2023/06/13 11:56:25;;;;;;;;;15.00;12.50;26.00;53.10;;;;;;111136;1243;50484;-67
2023/06/13 11:58:53;;;;;;;;;14.00;12.00;26.00;53.20;;;;;;111081;1247;49760;-66
2023/06/13 12:01:23;;;;;;;;;19.50;15.00;26.00;53.10;;;;;;111045;1243;53905;-70
2023/06/13 12:03:50;;;;;;;;;17.00;14.50;26.10;53.10;;;;;;111030;1243;44923;-70
2023/06/13 12:06:17;;;;;;;;;15.33;13.67;26.00;53.50;;;;;;111085;1243;49681;-70
2023/06/13 12:08:45;;;;;;;;;18.75;14.25;26.10;53.20;;;;;;111110;1247;49765;-64
2023/06/13 12:11:22;;;;;;;;;13.00;11.75;26.10;53.20;;;;;;111052;1244;54217;-67
2023/06/13 12:13:57;;;;;;;;;13.00;12.00;26.10;53.10;;;;;;111128;1244;44552;-67
2023/06/13 12:16:29;;;;;;;;;17.00;14.25;26.10;53.20;;;;;;111089;1247;49806;-66
2023/06/13 12:18:56;;;;;;;;;16.25;14.25;26.10;53.20;;;;;;110948;1244;50032;-66
2023/06/13 12:21:31;;;;;;;;;14.00;13.00;26.10;53.20;;;;;;110926;1247;54067;-67
2023/06/13 12:24:03;;;;;;;;;14.00;13.50;26.10;53.00;;;;;;110925;1247;45563;-68
2023/06/13 12:26:33;;;;;;;;;13.25;12.00;26.10;53.10;;;;;;110814;1243;49203;-67
2023/06/13 12:29:06;;;;;;;;;12.75;12.25;26.10;53.00;;;;;;110961;1243;49790;-68
2023/06/13 12:31:37;;;;;;;;;17.00;13.00;26.20;53.00;;;;;;110935;1247;53851;-66
2023/06/13 12:34:07;;;;;;;;;12.00;10.33;26.10;53.10;;;;;;110919;1247;44845;-66
2023/06/13 12:36:40;;;;;;;;;17.67;14.00;26.10;53.10;;;;;;111143;1243;49254;-69
2023/06/13 12:39:12;;;;;;;;;15.00;13.00;26.10;53.10;;;;;;110953;1248;50573;-68